Queen Victoria — ZCEF3 — position and weather

sailwx.info

Track history (hours):
 
Tides and Currents Weather Stations Pressure Air Temp Water Temp Dewpoint Dewpoint Depression Visibility Wind Speed Wind Dir Waves Ship Positions

Queen Victoria

Last reported at 2020-Aug-09 05:30 UTC. Time now 2020-Aug-09 22:37 UTC.
Position N 50°37' W 002°22'.

Length 294 m; draft 8 m.

Type: Ship. MMSI: 310624000.

Date/timePositionNaut miles runAvg speedWind from/ knotsBaromVisibWave heightAir tempDewpointWater temp
2020-Aug-09 05:30N 50°37' W 002°22'0 0.0
2020-Aug-08 11:27N 50°37' W 002°22'0 0.0
2020-Aug-08 09:21N 50°37' W 002°22'0 0.1
2020-Aug-08 08:39N 50°37' W 002°22'0 0.1
2020-Aug-08 08:00N 50°37' W 002°22'0 0.0
2020-Aug-08 05:00N 50°37' W 002°22'0 0.0
2020-Aug-08 03:51N 50°37' W 002°22'0 0.0
2020-Aug-08 02:48N 50°37' W 002°22'0 0.0
2020-Aug-08 01:00N 50°37' W 002°22'0 0.0
2020-Aug-07 23:57N 50°37' W 002°22'0 0.1
2020-Aug-07 21:51N 50°37' W 002°22'0 0.0
2020-Aug-07 19:27N 50°37' W 002°22'0 0.0
2020-Aug-07 17:15N 50°37' W 002°22'0 0.0
2020-Aug-07 16:30N 50°37' W 002°22'0 0.0
2020-Aug-07 14:00N 50°37' W 002°22'0 0.0
2020-Aug-07 13:00N 50°37' W 002°22'0 0.0
2020-Aug-07 12:30N 50°37' W 002°22'0 0.0
2020-Aug-07 10:30N 50°37' W 002°22'0 0.0
2020-Aug-07 10:00N 50°37' W 002°22'0 0.0
2020-Aug-07 06:24N 50°37' W 002°22'3 6.3
2020-Aug-07 06:00N 50°36' W 002°18'3 2.4 270 / 21017.610.8 21.514.818.0
2020-Aug-07 04:54N 50°37' W 002°22'0 0.0
2020-Aug-07 04:30N 50°37' W 002°22'0 0.0
2020-Aug-07 03:51N 50°37' W 002°22'0 0.0
2020-Aug-07 03:30N 50°37' W 002°22'0 0.0
2020-Aug-07 00:54N 50°37' W 002°22'0 0.0
2020-Aug-06 23:30N 50°37' W 002°22'0 0.0
2020-Aug-06 21:30N 50°37' W 002°22'0 0.0
2020-Aug-06 19:57N 50°37' W 002°22'0 0.0
2020-Aug-06 16:00N 50°37' W 002°22'0 0.0
2020-Aug-06 13:30N 50°37' W 002°22'0 0.0
2020-Aug-06 04:12N 50°37' W 002°22'0 0.0
2020-Aug-05 13:00N 50°37' W 002°22'0 0.0
2020-Aug-05 12:30N 50°37' W 002°22'0 0.0
2020-Aug-05 09:30N 50°37' W 002°22'0 0.0
2020-Aug-05 06:30N 50°37' W 002°22'0 0.0
2020-Aug-05 04:30N 50°37' W 002°22'0 0.0
2020-Aug-05 00:24N 50°37' W 002°22'0 0.0
2020-Aug-04 22:30N 50°37' W 002°22'0 0.0
2020-Aug-04 21:00N 50°37' W 002°22'0 0.0
2020-Aug-04 20:00N 50°37' W 002°22'0 0.0
2020-Aug-04 04:55N 50°37' W 002°22'0 0.0
2020-Aug-03 17:16N 50°37' W 002°22'0 0.1
2020-Aug-03 16:28N 50°37' W 002°22'0 0.0
2020-Aug-03 15:28N 50°37' W 002°22'0 0.0
2020-Aug-03 12:58N 50°37' W 002°22'0 0.0
2020-Aug-02 16:16N 50°37' W 002°22'2 0.2
2020-Aug-02 06:12N 50°35' W 002°21'1412.0
2020-Aug-02 05:00N 50°34' W 001°59'612.7
2020-Aug-02 04:30N 50°38' W 001°52'4 7.7
2020-Aug-02 04:00N 50°42' W 001°50'0 0.1
2020-Aug-02 03:00N 50°42' W 001°50'0 0.0
2020-Aug-02 02:00N 50°42' W 001°50'0 0.0
2020-Aug-02 01:00N 50°42' W 001°50'0 0.0
2020-Aug-01 22:27N 50°42' W 001°50'0 0.0
2020-Aug-01 16:00N 50°42' W 001°50'0 0.0
2020-Aug-01 14:00N 50°42' W 001°50'0 0.0
2020-Aug-01 11:30N 50°42' W 001°50'0 0.0
2020-Aug-01 09:30N 50°42' W 001°50'0 0.0
2020-Aug-01 05:27N 50°42' W 001°50'0 0.0
2020-Aug-01 03:00N 50°42' W 001°50'0 0.0
2020-Aug-01 02:30N 50°42' W 001°50'0 0.0
2020-Aug-01 00:30N 50°42' W 001°50'0 0.0
2020-Aug-01 00:00N 50°42' W 001°50'0 0.0
2020-Jul-31 21:30N 50°42' W 001°50'0 0.0
2020-Jul-31 18:00N 50°42' W 001°50'0 0.0
2020-Jul-31 15:30N 50°42' W 001°50'0 0.0
2020-Jul-31 12:00N 50°42' W 001°50'0 0.0
2020-Jul-31 10:00N 50°42' W 001°50'0 0.0
2020-Jul-31 06:30N 50°42' W 001°50'0 0.0
2020-Jul-31 06:00N 50°42' W 001°50'0 0.0
2020-Jul-31 05:00N 50°42' W 001°50'0 0.0
2020-Jul-31 03:57N 50°42' W 001°50'0 0.0
2020-Jul-31 01:00N 50°42' W 001°50'0 0.0
2020-Jul-31 00:30N 50°42' W 001°50'0 0.0
2020-Jul-30 22:30N 50°42' W 001°50'0 0.0
2020-Jul-30 21:30N 50°42' W 001°50'0 0.0
2020-Jul-30 20:30N 50°42' W 001°50'5 4.7
2020-Jul-30 19:30N 50°39' W 001°44'19 1.8
2020-Jul-30 08:58N 50°54' W 001°25'2 3.4
2020-Jul-30 08:31N 50°53' W 001°24'24 9.8
2020-Jul-30 06:00N 50°33' W 001°01'  
Track history (hours):
 
Tides and Currents Weather Stations Pressure Air Temp Water Temp Dewpoint Dewpoint Depression Visibility Wind Speed Wind Dir Waves Ship Positions

Queen Victoria

Last reported at 2020-Aug-09 05:30 UTC. Time now 2020-Aug-09 22:37 UTC.
Position N 50°37' W 002°22'.

Length 294 m; draft 8 m.

Type: Ship. MMSI: 310624000.

Date/timePositionNaut miles runAvg speedWind from/ knotsBaromVisibWave heightAir tempDewpointWater temp
2020-Aug-09 05:30N 50°37' W 002°22'0 0.0
2020-Aug-08 11:27N 50°37' W 002°22'0 0.0
2020-Aug-08 09:21N 50°37' W 002°22'0 0.1
2020-Aug-08 08:39N 50°37' W 002°22'0 0.1
2020-Aug-08 08:00N 50°37' W 002°22'0 0.0
2020-Aug-08 05:00N 50°37' W 002°22'0 0.0
2020-Aug-08 03:51N 50°37' W 002°22'0 0.0
2020-Aug-08 02:48N 50°37' W 002°22'0 0.0
2020-Aug-08 01:00N 50°37' W 002°22'0 0.0
2020-Aug-07 23:57N 50°37' W 002°22'0 0.1
2020-Aug-07 21:51N 50°37' W 002°22'0 0.0
2020-Aug-07 19:27N 50°37' W 002°22'0 0.0
2020-Aug-07 17:15N 50°37' W 002°22'0 0.0
2020-Aug-07 16:30N 50°37' W 002°22'0 0.0
2020-Aug-07 14:00N 50°37' W 002°22'0 0.0
2020-Aug-07 13:00N 50°37' W 002°22'0 0.0
2020-Aug-07 12:30N 50°37' W 002°22'0 0.0
2020-Aug-07 10:30N 50°37' W 002°22'0 0.0
2020-Aug-07 10:00N 50°37' W 002°22'0 0.0
2020-Aug-07 06:24N 50°37' W 002°22'3 6.3
2020-Aug-07 06:00N 50°36' W 002°18'3 2.4 270 / 21017.610.8 21.514.818.0
2020-Aug-07 04:54N 50°37' W 002°22'0 0.0
2020-Aug-07 04:30N 50°37' W 002°22'0 0.0
2020-Aug-07 03:51N 50°37' W 002°22'0 0.0
2020-Aug-07 03:30N 50°37' W 002°22'0 0.0
2020-Aug-07 00:54N 50°37' W 002°22'0 0.0
2020-Aug-06 23:30N 50°37' W 002°22'0 0.0
2020-Aug-06 21:30N 50°37' W 002°22'0 0.0
2020-Aug-06 19:57N 50°37' W 002°22'0 0.0
2020-Aug-06 16:00N 50°37' W 002°22'0 0.0
2020-Aug-06 13:30N 50°37' W 002°22'0 0.0
2020-Aug-06 04:12N 50°37' W 002°22'0 0.0
2020-Aug-05 13:00N 50°37' W 002°22'0 0.0
2020-Aug-05 12:30N 50°37' W 002°22'0 0.0
2020-Aug-05 09:30N 50°37' W 002°22'0 0.0
2020-Aug-05 06:30N 50°37' W 002°22'0 0.0
2020-Aug-05 04:30N 50°37' W 002°22'0 0.0
2020-Aug-05 00:24N 50°37' W 002°22'0 0.0
2020-Aug-04 22:30N 50°37' W 002°22'0 0.0
2020-Aug-04 21:00N 50°37' W 002°22'0 0.0
2020-Aug-04 20:00N 50°37' W 002°22'0 0.0
2020-Aug-04 04:55N 50°37' W 002°22'0 0.0
2020-Aug-03 17:16N 50°37' W 002°22'0 0.1
2020-Aug-03 16:28N 50°37' W 002°22'0 0.0
2020-Aug-03 15:28N 50°37' W 002°22'0 0.0
2020-Aug-03 12:58N 50°37' W 002°22'0 0.0
2020-Aug-02 16:16N 50°37' W 002°22'2 0.2
2020-Aug-02 06:12N 50°35' W 002°21'1412.0
2020-Aug-02 05:00N 50°34' W 001°59'612.7
2020-Aug-02 04:30N 50°38' W 001°52'4 7.7
2020-Aug-02 04:00N 50°42' W 001°50'0 0.1
2020-Aug-02 03:00N 50°42' W 001°50'0 0.0
2020-Aug-02 02:00N 50°42' W 001°50'0 0.0
2020-Aug-02 01:00N 50°42' W 001°50'0 0.0
2020-Aug-01 22:27N 50°42' W 001°50'0 0.0
2020-Aug-01 16:00N 50°42' W 001°50'0 0.0
2020-Aug-01 14:00N 50°42' W 001°50'0 0.0
2020-Aug-01 11:30N 50°42' W 001°50'0 0.0
2020-Aug-01 09:30N 50°42' W 001°50'0 0.0
2020-Aug-01 05:27N 50°42' W 001°50'0 0.0
2020-Aug-01 03:00N 50°42' W 001°50'0 0.0
2020-Aug-01 02:30N 50°42' W 001°50'0 0.0
2020-Aug-01 00:30N 50°42' W 001°50'0 0.0
2020-Aug-01 00:00N 50°42' W 001°50'0 0.0
2020-Jul-31 21:30N 50°42' W 001°50'0 0.0
2020-Jul-31 18:00N 50°42' W 001°50'0 0.0
2020-Jul-31 15:30N 50°42' W 001°50'0 0.0
2020-Jul-31 12:00N 50°42' W 001°50'0 0.0
2020-Jul-31 10:00N 50°42' W 001°50'0 0.0
2020-Jul-31 06:30N 50°42' W 001°50'0 0.0
2020-Jul-31 06:00N 50°42' W 001°50'0 0.0
2020-Jul-31 05:00N 50°42' W 001°50'0 0.0
2020-Jul-31 03:57N 50°42' W 001°50'0 0.0
2020-Jul-31 01:00N 50°42' W 001°50'0 0.0
2020-Jul-31 00:30N 50°42' W 001°50'0 0.0
2020-Jul-30 22:30N 50°42' W 001°50'0 0.0
2020-Jul-30 21:30N 50°42' W 001°50'0 0.0
2020-Jul-30 20:30N 50°42' W 001°50'5 4.7
2020-Jul-30 19:30N 50°39' W 001°44'19 1.8
2020-Jul-30 08:58N 50°54' W 001°25'2 3.4
2020-Jul-30 08:31N 50°53' W 001°24'24 9.8
2020-Jul-30 06:00N 50°33' W 001°01'  

Dump ship's entire track history